sensor_id;sensor_type;location;lat;lon;timestamp;pressure;altitude;pressure_sealevel;temperature;humidity
71996;BME280;59862;47.732;7.346;2022-09-11T00:01:24;98323.83;;;14.57;80.46
71996;BME280;59862;47.732;7.346;2022-09-11T00:03:52;98320.62;;;14.55;81.13
71996;BME280;59862;47.732;7.346;2022-09-11T00:06:24;98324.34;;;14.53;81.17
71996;BME280;59862;47.732;7.346;2022-09-11T00:08:54;98321.42;;;14.56;81.23
71996;BME280;59862;47.732;7.346;2022-09-11T00:11:28;98320.70;;;14.49;81.38
71996;BME280;59862;47.732;7.346;2022-09-11T00:13:56;98316.63;;;14.53;81.56
71996;BME280;59862;47.732;7.346;2022-09-11T00:19:07;98311.60;;;14.49;81.93
71996;BME280;59862;47.732;7.346;2022-09-11T00:21:30;98313.64;;;14.42;82.17
71996;BME280;59862;47.732;7.346;2022-09-11T00:23:58;98313.28;;;14.44;82.48
71996;BME280;59862;47.732;7.346;2022-09-11T00:26:26;98307.86;;;14.41;82.52
71996;BME280;59862;47.732;7.346;2022-09-11T00:28:54;98316.45;;;14.36;82.88
71996;BME280;59862;47.732;7.346;2022-09-11T00:31:25;98315.80;;;14.33;83.18
71996;BME280;59862;47.732;7.346;2022-09-11T00:33:54;98303.34;;;14.33;82.98
71996;BME280;59862;47.732;7.346;2022-09-11T00:36:25;98304.30;;;14.31;83.06
71996;BME280;59862;47.732;7.346;2022-09-11T00:38:53;98306.38;;;14.28;83.21
71996;BME280;59862;47.732;7.346;2022-09-11T00:41:24;98304.70;;;14.23;83.10
71996;BME280;59862;47.732;7.346;2022-09-11T00:44:51;98298.73;;;14.21;83.01
71996;BME280;59862;47.732;7.346;2022-09-11T00:46:39;98311.17;;;14.12;83.43
71996;BME280;59862;47.732;7.346;2022-09-11T00:52:13;98305.11;;;13.96;84.04
71996;BME280;59862;47.732;7.346;2022-09-11T00:54:50;98297.90;;;13.92;84.51
71996;BME280;59862;47.732;7.346;2022-09-11T00:57:20;98299.36;;;13.95;84.26
71996;BME280;59862;47.732;7.346;2022-09-11T00:59:51;98300.95;;;13.87;84.40
71996;BME280;59862;47.732;7.346;2022-09-11T01:02:22;98300.08;;;13.92;84.58
71996;BME280;59862;47.732;7.346;2022-09-11T01:04:54;98294.70;;;14.00;84.31
71996;BME280;59862;47.732;7.346;2022-09-11T01:07:23;98294.20;;;14.04;83.74
71996;BME280;59862;47.732;7.346;2022-09-11T01:09:52;98298.93;;;14.03;83.91
71996;BME280;59862;47.732;7.346;2022-09-11T01:23:37;98300.55;;;14.23;83.01
71996;BME280;59862;47.732;7.346;2022-09-11T01:26:26;98298.39;;;14.33;82.39
71996;BME280;59862;47.732;7.346;2022-09-11T01:29:08;98292.94;;;14.36;82.48
71996;BME280;59862;47.732;7.346;2022-09-11T01:32:18;98292.72;;;14.35;82.22
71996;BME280;59862;47.732;7.346;2022-09-11T01:34:28;98295.19;;;14.31;82.41
71996;BME280;59862;47.732;7.346;2022-09-11T01:36:58;98293.81;;;14.31;82.27
71996;BME280;59862;47.732;7.346;2022-09-11T01:39:28;98297.81;;;14.33;82.45
71996;BME280;59862;47.732;7.346;2022-09-11T01:42:08;98299.13;;;14.39;82.28
71996;BME280;59862;47.732;7.346;2022-09-11T01:47:12;98302.11;;;14.40;82.00
71996;BME280;59862;47.732;7.346;2022-09-11T01:49:59;98298.42;;;14.42;81.46
71996;BME280;59862;47.732;7.346;2022-09-11T01:52:39;98296.67;;;14.44;81.59
71996;BME280;59862;47.732;7.346;2022-09-11T01:55:11;98298.91;;;14.38;81.82
71996;BME280;59862;47.732;7.346;2022-09-11T01:57:50;98307.79;;;14.38;82.13
71996;BME280;59862;47.732;7.346;2022-09-11T02:00:14;98298.06;;;14.44;82.16
71996;BME280;59862;47.732;7.346;2022-09-11T02:02:45;98304.61;;;14.45;82.06
71996;BME280;59862;47.732;7.346;2022-09-11T02:05:26;98301.91;;;14.49;82.02
71996;BME280;59862;47.732;7.346;2022-09-11T02:07:59;98304.67;;;14.58;81.86
71996;BME280;59862;47.732;7.346;2022-09-11T02:10:23;98302.92;;;14.60;81.56
71996;BME280;59862;47.732;7.346;2022-09-11T02:12:54;98304.31;;;14.50;81.78
71996;BME280;59862;47.732;7.346;2022-09-11T02:15:18;98311.97;;;14.47;82.29
71996;BME280;59862;47.732;7.346;2022-09-11T02:18:01;98314.52;;;14.46;82.25
71996;BME280;59862;47.732;7.346;2022-09-11T02:20:30;98316.55;;;14.49;82.39
71996;BME280;59862;47.732;7.346;2022-09-11T02:22:58;98315.53;;;14.48;82.48
71996;BME280;59862;47.732;7.346;2022-09-11T02:25:25;98314.22;;;14.51;82.18
71996;BME280;59862;47.732;7.346;2022-09-11T02:27:53;98318.88;;;14.47;82.20
71996;BME280;59862;47.732;7.346;2022-09-11T02:30:21;98312.38;;;14.40;82.71
71996;BME280;59862;47.732;7.346;2022-09-11T02:32:48;98308.59;;;14.38;82.84
71996;BME280;59862;47.732;7.346;2022-09-11T02:35:16;98309.68;;;14.34;82.98
71996;BME280;59862;47.732;7.346;2022-09-11T02:37:58;98311.86;;;14.34;83.03
71996;BME280;59862;47.732;7.346;2022-09-11T02:40:30;98313.83;;;14.34;83.02
71996;BME280;59862;47.732;7.346;2022-09-11T02:51:24;98307.90;;;14.16;83.66
71996;BME280;59862;47.732;7.346;2022-09-11T02:57:19;98311.97;;;14.12;83.57
71996;BME280;59862;47.732;7.346;2022-09-11T02:59:58;98308.11;;;14.17;83.71
71996;BME280;59862;47.732;7.346;2022-09-11T03:02:23;98305.34;;;14.17;83.56
71996;BME280;59862;47.732;7.346;2022-09-11T03:04:50;98297.41;;;14.15;83.83
71996;BME280;59862;47.732;7.346;2022-09-11T03:07:18;98305.13;;;14.16;83.74
71996;BME280;59862;47.732;7.346;2022-09-11T03:09:46;98296.11;;;14.19;83.50
71996;BME280;59862;47.732;7.346;2022-09-11T03:12:13;98296.91;;;14.10;83.76
71996;BME280;59862;47.732;7.346;2022-09-11T03:14:40;98298.79;;;14.06;84.21
71996;BME280;59862;47.732;7.346;2022-09-11T03:17:08;98292.16;;;14.01;84.29
71996;BME280;59862;47.732;7.346;2022-09-11T03:19:36;98287.58;;;13.99;84.37
71996;BME280;59862;47.732;7.346;2022-09-11T03:22:03;98287.44;;;14.01;84.39
71996;BME280;59862;47.732;7.346;2022-09-11T03:24:31;98276.66;;;13.96;84.52
71996;BME280;59862;47.732;7.346;2022-09-11T03:26:59;98277.82;;;13.95;84.45
71996;BME280;59862;47.732;7.346;2022-09-11T03:29:26;98275.56;;;13.91;84.69
71996;BME280;59862;47.732;7.346;2022-09-11T03:31:54;98277.30;;;13.89;84.67
71996;BME280;59862;47.732;7.346;2022-09-11T03:34:23;98268.35;;;13.86;84.84
71996;BME280;59862;47.732;7.346;2022-09-11T03:36:51;98275.33;;;13.80;85.01
71996;BME280;59862;47.732;7.346;2022-09-11T03:39:19;98262.31;;;13.81;85.08
71996;BME280;59862;47.732;7.346;2022-09-11T03:41:47;98267.76;;;13.77;85.12
71996;BME280;59862;47.732;7.346;2022-09-11T03:44:14;98275.39;;;13.74;85.31
71996;BME280;59862;47.732;7.346;2022-09-11T03:46:43;98265.27;;;13.72;85.46
71996;BME280;59862;47.732;7.346;2022-09-11T03:49:10;98269.06;;;13.74;85.29
71996;BME280;59862;47.732;7.346;2022-09-11T03:51:38;98269.20;;;13.71;85.45
71996;BME280;59862;47.732;7.346;2022-09-11T03:54:05;98265.27;;;13.72;85.16
71996;BME280;59862;47.732;7.346;2022-09-11T03:56:33;98262.21;;;13.68;85.47
71996;BME280;59862;47.732;7.346;2022-09-11T03:59:00;98262.80;;;13.67;85.51
71996;BME280;59862;47.732;7.346;2022-09-11T04:01:28;98263.45;;;13.70;85.24
71996;BME280;59862;47.732;7.346;2022-09-11T04:03:55;98276.47;;;13.70;85.24
71996;BME280;59862;47.732;7.346;2022-09-11T04:06:23;98278.66;;;13.70;84.98
71996;BME280;59862;47.732;7.346;2022-09-11T04:08:50;98277.85;;;13.70;85.11
71996;BME280;59862;47.732;7.346;2022-09-11T04:11:18;98277.50;;;13.71;84.89
71996;BME280;59862;47.732;7.346;2022-09-11T04:13:45;98276.63;;;13.77;84.63
71996;BME280;59862;47.732;7.346;2022-09-11T04:16:15;98274.01;;;13.74;84.66
71996;BME280;59862;47.732;7.346;2022-09-11T04:18:44;98280.92;;;13.74;84.38
71996;BME280;59862;47.732;7.346;2022-09-11T04:21:14;98275.03;;;13.76;84.30
71996;BME280;59862;47.732;7.346;2022-09-11T04:23:43;98284.92;;;13.77;84.15
71996;BME280;59862;47.732;7.346;2022-09-11T04:26:20;98284.13;;;13.76;84.02
71996;BME280;59862;47.732;7.346;2022-09-11T04:28:44;98278.67;;;13.80;83.88
71996;BME280;59862;47.732;7.346;2022-09-11T04:31:13;98283.41;;;13.79;83.87
71996;BME280;59862;47.732;7.346;2022-09-11T04:33:41;98286.16;;;13.79;83.57
71996;BME280;59862;47.732;7.346;2022-09-11T04:36:11;98290.38;;;13.73;83.85
71996;BME280;59862;47.732;7.346;2022-09-11T04:38:40;98286.45;;;13.74;83.81
71996;BME280;59862;47.732;7.346;2022-09-11T04:41:08;98295.23;;;13.70;83.80
71996;BME280;59862;47.732;7.346;2022-09-11T04:43:38;98295.23;;;13.70;83.78
71996;BME280;59862;47.732;7.346;2022-09-11T04:46:11;98299.61;;;13.71;83.82
71996;BME280;59862;47.732;7.346;2022-09-11T04:48:36;98297.86;;;13.73;83.77
71996;BME280;59862;47.732;7.346;2022-09-11T04:51:06;98297.34;;;13.67;83.98
71996;BME280;59862;47.732;7.346;2022-09-11T04:53:35;98308.17;;;13.66;84.03
71996;BME280;59862;47.732;7.346;2022-09-11T04:56:10;98304.05;;;13.60;84.25
71996;BME280;59862;47.732;7.346;2022-09-11T04:58:40;98311.09;;;13.57;84.26
71996;BME280;59862;47.732;7.346;2022-09-11T05:01:10;98305.71;;;13.55;84.24
71996;BME280;59862;47.732;7.346;2022-09-11T05:03:39;98308.61;;;13.52;84.42
71996;BME280;59862;47.732;7.346;2022-09-11T05:06:10;98312.53;;;13.51;84.28
71996;BME280;59862;47.732;7.346;2022-09-11T05:08:40;98317.36;;;13.39;84.88
71996;BME280;59862;47.732;7.346;2022-09-11T05:11:10;98319.98;;;13.41;84.97
71996;BME280;59862;47.732;7.346;2022-09-11T05:13:39;98323.55;;;13.42;84.85
71996;BME280;59862;47.732;7.346;2022-09-11T05:16:10;98326.09;;;13.41;84.83
71996;BME280;59862;47.732;7.346;2022-09-11T05:18:39;98327.69;;;13.42;84.99
71996;BME280;59862;47.732;7.346;2022-09-11T05:21:10;98333.66;;;13.44;84.93
71996;BME280;59862;47.732;7.346;2022-09-11T05:23:40;98337.59;;;13.43;84.78
71996;BME280;59862;47.732;7.346;2022-09-11T05:26:13;98333.71;;;13.38;85.04
71996;BME280;59862;47.732;7.346;2022-09-11T05:28:41;98335.94;;;13.48;84.71
71996;BME280;59862;47.732;7.346;2022-09-11T05:31:14;98335.58;;;13.49;84.43
71996;BME280;59862;47.732;7.346;2022-09-11T05:33:43;98345.47;;;13.50;84.51
71996;BME280;59862;47.732;7.346;2022-09-11T05:36:12;98348.05;;;13.59;84.51
71996;BME280;59862;47.732;7.346;2022-09-11T05:38:41;98357.34;;;13.67;84.06
71996;BME280;59862;47.732;7.346;2022-09-11T05:41:10;98364.42;;;13.74;83.65
71996;BME280;59862;47.732;7.346;2022-09-11T05:43:40;98360.19;;;13.70;83.92
71996;BME280;59862;47.732;7.346;2022-09-11T05:46:15;98367.98;;;13.74;83.69
71996;BME280;59862;47.732;7.346;2022-09-11T05:48:39;98367.77;;;13.73;83.77
71996;BME280;59862;47.732;7.346;2022-09-11T05:51:10;98365.80;;;13.74;83.65
71996;BME280;59862;47.732;7.346;2022-09-11T05:53:39;98367.27;;;13.77;83.56
71996;BME280;59862;47.732;7.346;2022-09-11T05:56:14;98365.95;;;13.65;83.77
71996;BME280;59862;47.732;7.346;2022-09-11T05:58:43;98373.23;;;13.63;83.93
71996;BME280;59862;47.732;7.346;2022-09-11T06:01:14;98371.38;;;13.68;84.05
71996;BME280;59862;47.732;7.346;2022-09-11T06:03:42;98373.92;;;13.67;84.06
71996;BME280;59862;47.732;7.346;2022-09-11T06:06:11;98380.11;;;13.70;83.94
71996;BME280;59862;47.732;7.346;2022-09-11T06:08:40;98380.92;;;13.70;84.04
71996;BME280;59862;47.732;7.346;2022-09-11T06:11:12;98387.86;;;13.80;83.93
71996;BME280;59862;47.732;7.346;2022-09-11T06:13:44;98389.11;;;13.82;83.56
71996;BME280;59862;47.732;7.346;2022-09-11T06:16:17;98398.51;;;13.87;83.57
71996;BME280;59862;47.732;7.346;2022-09-11T06:18:46;98400.72;;;13.98;83.06
71996;BME280;59862;47.732;7.346;2022-09-11T06:21:19;98400.09;;;14.04;82.90
71996;BME280;59862;47.732;7.346;2022-09-11T06:23:51;98397.56;;;14.15;82.78
71996;BME280;59862;47.732;7.346;2022-09-11T06:26:21;98406.41;;;14.30;82.01
71996;BME280;59862;47.732;7.346;2022-09-11T06:28:49;98407.47;;;14.41;81.70
71996;BME280;59862;47.732;7.346;2022-09-11T06:31:19;98407.45;;;14.57;81.49
71996;BME280;59862;47.732;7.346;2022-09-11T06:33:47;98404.61;;;14.63;80.64
71996;BME280;59862;47.732;7.346;2022-09-11T06:36:19;98413.57;;;14.66;80.50
71996;BME280;59862;47.732;7.346;2022-09-11T06:38:52;98408.18;;;14.64;80.35
71996;BME280;59862;47.732;7.346;2022-09-11T06:41:21;98414.44;;;14.61;80.56
71996;BME280;59862;47.732;7.346;2022-09-11T06:43:49;98414.59;;;14.58;80.84
71996;BME280;59862;47.732;7.346;2022-09-11T06:46:19;98407.52;;;14.61;80.21
71996;BME280;59862;47.732;7.346;2022-09-11T06:48:48;98405.84;;;14.66;79.92
71996;BME280;59862;47.732;7.346;2022-09-11T06:51:17;98407.09;;;14.68;79.86
71996;BME280;59862;47.732;7.346;2022-09-11T06:53:46;98406.36;;;14.71;80.20
71996;BME280;59862;47.732;7.346;2022-09-11T06:56:16;98401.11;;;14.66;80.18
71996;BME280;59862;47.732;7.346;2022-09-11T06:58:44;98390.55;;;14.72;80.20
71996;BME280;59862;47.732;7.346;2022-09-11T07:01:14;98393.24;;;14.78;79.61
71996;BME280;59862;47.732;7.346;2022-09-11T07:03:43;98402.56;;;14.89;80.00
71996;BME280;59862;47.732;7.346;2022-09-11T07:06:17;98405.12;;;15.07;79.18
71996;BME280;59862;47.732;7.346;2022-09-11T07:08:52;98401.76;;;15.17;78.53
71996;BME280;59862;47.732;7.346;2022-09-11T07:11:22;98405.70;;;15.16;78.17
71996;BME280;59862;47.732;7.346;2022-09-11T07:13:49;98409.85;;;15.16;78.35
71996;BME280;59862;47.732;7.346;2022-09-11T07:16:17;98401.11;;;15.14;78.22
71996;BME280;59862;47.732;7.346;2022-09-11T07:18:46;98404.75;;;15.18;78.19
71996;BME280;59862;47.732;7.346;2022-09-11T07:21:16;98399.13;;;15.25;77.90
71996;BME280;59862;47.732;7.346;2022-09-11T07:23:49;98407.05;;;15.36;77.88
71996;BME280;59862;47.732;7.346;2022-09-11T07:26:18;98396.08;;;15.43;78.05
71996;BME280;59862;47.732;7.346;2022-09-11T07:28:46;98410.28;;;15.51;77.75
71996;BME280;59862;47.732;7.346;2022-09-11T07:31:18;98406.22;;;15.64;77.15
71996;BME280;59862;47.732;7.346;2022-09-11T07:33:47;98406.98;;;15.74;77.58
71996;BME280;59862;47.732;7.346;2022-09-11T07:36:17;98408.38;;;15.88;76.86
71996;BME280;59862;47.732;7.346;2022-09-11T07:38:46;98405.83;;;15.89;77.38
71996;BME280;59862;47.732;7.346;2022-09-11T07:41:17;98408.72;;;16.09;76.72
71996;BME280;59862;47.732;7.346;2022-09-11T07:43:45;98402.36;;;16.22;76.03
71996;BME280;59862;47.732;7.346;2022-09-11T07:46:15;98406.28;;;16.30;75.77
71996;BME280;59862;47.732;7.346;2022-09-11T07:48:42;98401.99;;;16.49;74.86
71996;BME280;59862;47.732;7.346;2022-09-11T07:51:12;98408.28;;;16.73;74.87
71996;BME280;59862;47.732;7.346;2022-09-11T07:53:48;98405.37;;;16.92;73.23
71996;BME280;59862;47.732;7.346;2022-09-11T07:56:13;98404.36;;;16.91;73.51
71996;BME280;59862;47.732;7.346;2022-09-11T07:58:43;98403.45;;;16.83;73.64
71996;BME280;59862;47.732;7.346;2022-09-11T08:01:15;98409.75;;;16.93;73.22
71996;BME280;59862;47.732;7.346;2022-09-11T08:03:43;98404.97;;;17.27;72.00
71996;BME280;59862;47.732;7.346;2022-09-11T08:06:15;98405.39;;;17.50;71.03
71996;BME280;59862;47.732;7.346;2022-09-11T08:08:44;98410.77;;;17.52;69.75
71996;BME280;59862;47.732;7.346;2022-09-11T08:11:16;98407.80;;;18.19;67.17
71996;BME280;59862;47.732;7.346;2022-09-11T08:13:51;98407.80;;;18.19;67.17
71996;BME280;59862;47.732;7.346;2022-09-11T08:16:21;98402.83;;;18.46;66.74
71996;BME280;59862;47.732;7.346;2022-09-11T08:18:50;98403.26;;;18.52;64.44
71996;BME280;59862;47.732;7.346;2022-09-11T08:21:18;98405.94;;;19.03;64.93
71996;BME280;59862;47.732;7.346;2022-09-11T08:23:47;98410.42;;;19.43;63.21
71996;BME280;59862;47.732;7.346;2022-09-11T08:26:17;98415.78;;;19.35;61.66
71996;BME280;59862;47.732;7.346;2022-09-11T08:28:47;98407.71;;;19.57;63.17
71996;BME280;59862;47.732;7.346;2022-09-11T08:31:16;98407.33;;;20.09;60.82
71996;BME280;59862;47.732;7.346;2022-09-11T08:33:45;98409.10;;;20.53;60.17
71996;BME280;59862;47.732;7.346;2022-09-11T08:36:14;98408.03;;;20.77;58.07
71996;BME280;59862;47.732;7.346;2022-09-11T08:38:41;98405.63;;;20.79;58.14
71996;BME280;59862;47.732;7.346;2022-09-11T08:41:24;98400.03;;;20.89;56.46
71996;BME280;59862;47.732;7.346;2022-09-11T08:43:47;98403.86;;;21.64;55.40
71996;BME280;59862;47.732;7.346;2022-09-11T08:46:17;98398.84;;;22.60;52.15
71996;BME280;59862;47.732;7.346;2022-09-11T08:48:53;98400.08;;;22.18;52.64
71996;BME280;59862;47.732;7.346;2022-09-11T08:51:18;98396.73;;;23.55;49.71
71996;BME280;59862;47.732;7.346;2022-09-11T08:53:46;98392.78;;;23.64;50.08
71996;BME280;59862;47.732;7.346;2022-09-11T08:56:17;98405.27;;;22.98;50.63
71996;BME280;59862;47.732;7.346;2022-09-11T08:59:08;98413.30;;;22.77;51.81
71996;BME280;59862;47.732;7.346;2022-09-11T09:01:45;98406.11;;;23.83;49.49
71996;BME280;59862;47.732;7.346;2022-09-11T09:07:09;98400.17;;;24.16;46.81
71996;BME280;59862;47.732;7.346;2022-09-11T09:09:59;98404.47;;;23.86;48.12
71996;BME280;59862;47.732;7.346;2022-09-11T09:17:58;98409.70;;;22.77;49.96
71996;BME280;59862;47.732;7.346;2022-09-11T09:20:39;98402.89;;;23.43;49.66
71996;BME280;59862;47.732;7.346;2022-09-11T09:23:12;98412.21;;;22.64;50.84
71996;BME280;59862;47.732;7.346;2022-09-11T09:25:42;98405.97;;;23.21;50.80
71996;BME280;59862;47.732;7.346;2022-09-11T09:28:20;98404.86;;;23.61;49.25
71996;BME280;59862;47.732;7.346;2022-09-11T09:30:55;98404.52;;;24.09;47.72
71996;BME280;59862;47.732;7.346;2022-09-11T09:33:32;98403.59;;;24.16;46.88
71996;BME280;59862;47.732;7.346;2022-09-11T09:36:12;98415.42;;;23.65;46.10
71996;BME280;59862;47.732;7.346;2022-09-11T09:38:35;98410.08;;;23.28;47.42
71996;BME280;59862;47.732;7.346;2022-09-11T09:46:48;98407.75;;;21.51;53.23
71996;BME280;59862;47.732;7.346;2022-09-11T09:49:23;98405.91;;;21.13;53.09
71996;BME280;59862;47.732;7.346;2022-09-11T09:51:52;98397.17;;;22.66;49.52
71996;BME280;59862;47.732;7.346;2022-09-11T09:54:22;98396.32;;;24.18;46.65
71996;BME280;59862;47.732;7.346;2022-09-11T09:56:59;98393.56;;;24.26;44.76
71996;BME280;59862;47.732;7.346;2022-09-11T09:59:34;98400.10;;;25.46;42.70
71996;BME280;59862;47.732;7.346;2022-09-11T10:01:58;98399.39;;;26.51;42.05
71996;BME280;59862;47.732;7.346;2022-09-11T10:04:27;98395.98;;;27.64;39.80
71996;BME280;59862;47.732;7.346;2022-09-11T10:09:55;98391.32;;;27.24;38.96
71996;BME280;59862;47.732;7.346;2022-09-11T10:12:12;98386.42;;;27.91;37.83
71996;BME280;59862;47.732;7.346;2022-09-11T10:14:54;98382.28;;;28.60;36.34
71996;BME280;59862;47.732;7.346;2022-09-11T10:17:32;98384.26;;;28.85;37.30
71996;BME280;59862;47.732;7.346;2022-09-11T10:22:51;98380.27;;;29.84;34.60
71996;BME280;59862;47.732;7.346;2022-09-11T10:25:25;98381.05;;;29.80;34.22
71996;BME280;59862;47.732;7.346;2022-09-11T10:28:08;98384.23;;;29.91;32.90
71996;BME280;59862;47.732;7.346;2022-09-11T10:30:40;98385.20;;;29.30;33.78
71996;BME280;59862;47.732;7.346;2022-09-11T10:33:28;98378.23;;;28.01;36.94
71996;BME280;59862;47.732;7.346;2022-09-11T10:35:59;98375.89;;;28.64;35.00
71996;BME280;59862;47.732;7.346;2022-09-11T10:38:32;98379.44;;;29.70;33.82
71996;BME280;59862;47.732;7.346;2022-09-11T10:43:57;98364.10;;;30.79;32.27
71996;BME280;59862;47.732;7.346;2022-09-11T10:46:29;98364.70;;;31.02;31.19
71996;BME280;59862;47.732;7.346;2022-09-11T10:51:37;98369.45;;;30.96;31.52
71996;BME280;59862;47.732;7.346;2022-09-11T11:00:00;98368.94;;;31.80;29.64
71996;BME280;59862;47.732;7.346;2022-09-11T11:02:29;98354.66;;;32.23;28.46
71996;BME280;59862;47.732;7.346;2022-09-11T11:05:01;98354.50;;;32.22;26.46
71996;BME280;59862;47.732;7.346;2022-09-11T11:07:38;98358.52;;;31.35;28.99
71996;BME280;59862;47.732;7.346;2022-09-11T11:10:07;98357.53;;;31.47;28.01
71996;BME280;59862;47.732;7.346;2022-09-11T11:15:33;98355.87;;;32.78;25.46
71996;BME280;59862;47.732;7.346;2022-09-11T11:23:24;98346.23;;;30.56;27.44
71996;BME280;59862;47.732;7.346;2022-09-11T11:31:41;98333.21;;;28.59;31.38
71996;BME280;59862;47.732;7.346;2022-09-11T11:34:20;98338.64;;;31.08;28.01
71996;BME280;59862;47.732;7.346;2022-09-11T11:39:27;98343.97;;;33.58;25.79
71996;BME280;59862;47.732;7.346;2022-09-11T11:44:39;98330.14;;;32.68;25.86
71996;BME280;59862;47.732;7.346;2022-09-11T11:47:05;98333.93;;;33.04;25.15
71996;BME280;59862;47.732;7.346;2022-09-11T11:49:57;98328.12;;;32.84;24.95
71996;BME280;59862;47.732;7.346;2022-09-11T11:55:12;98325.99;;;33.23;23.87
71996;BME280;59862;47.732;7.346;2022-09-11T11:57:40;98325.00;;;32.77;25.79
71996;BME280;59862;47.732;7.346;2022-09-11T12:00:12;98324.58;;;32.31;25.73
71996;BME280;59862;47.732;7.346;2022-09-11T12:02:57;98321.56;;;32.06;26.08
71996;BME280;59862;47.732;7.346;2022-09-11T12:05:30;98326.06;;;33.58;24.49
71996;BME280;59862;47.732;7.346;2022-09-11T12:07:59;98320.02;;;34.41;24.10
71996;BME280;59862;47.732;7.346;2022-09-11T12:10:38;98322.42;;;34.17;23.54
71996;BME280;59862;47.732;7.346;2022-09-11T12:13:12;98323.40;;;34.95;23.60
71996;BME280;59862;47.732;7.346;2022-09-11T12:18:26;98315.52;;;32.75;24.77
71996;BME280;59862;47.732;7.346;2022-09-11T12:21:32;98321.47;;;34.51;23.62
71996;BME280;59862;47.732;7.346;2022-09-11T12:23:33;98321.79;;;35.15;22.77
71996;BME280;59862;47.732;7.346;2022-09-11T12:28:38;98317.12;;;37.82;19.72
71996;BME280;59862;47.732;7.346;2022-09-11T12:31:08;98319.94;;;38.50;19.70
71996;BME280;59862;47.732;7.346;2022-09-11T12:36:25;98300.39;;;37.92;19.26
71996;BME280;59862;47.732;7.346;2022-09-11T12:38:59;98304.45;;;38.30;18.42
71996;BME280;59862;47.732;7.346;2022-09-11T12:41:32;98299.84;;;39.68;17.70
71996;BME280;59862;47.732;7.346;2022-09-11T12:44:02;98299.30;;;40.18;18.37
71996;BME280;59862;47.732;7.346;2022-09-11T12:49:08;98306.22;;;38.15;18.81
71996;BME280;59862;47.732;7.346;2022-09-11T12:51:49;98299.54;;;39.84;17.42
71996;BME280;59862;47.732;7.346;2022-09-11T12:54:16;98287.54;;;39.68;17.20
71996;BME280;59862;47.732;7.346;2022-09-11T12:56:48;98290.13;;;41.01;16.37
71996;BME280;59862;47.732;7.346;2022-09-11T12:59:36;98279.05;;;39.33;17.36
71996;BME280;59862;47.732;7.346;2022-09-11T13:02:32;98284.51;;;39.67;17.73
71996;BME280;59862;47.732;7.346;2022-09-11T13:04:57;98276.62;;;35.87;20.96
71996;BME280;59862;47.732;7.346;2022-09-11T13:07:45;98275.74;;;33.65;23.26
71996;BME280;59862;47.732;7.346;2022-09-11T13:10:04;98271.89;;;35.16;22.78
71996;BME280;59862;47.732;7.346;2022-09-11T13:12:44;98272.91;;;37.34;20.26
71996;BME280;59862;47.732;7.346;2022-09-11T13:15:29;98271.31;;;39.35;18.50
71996;BME280;59862;47.732;7.346;2022-09-11T13:17:44;98266.53;;;40.71;16.97
71996;BME280;59862;47.732;7.346;2022-09-11T13:20:20;98266.84;;;41.69;15.73
71996;BME280;59862;47.732;7.346;2022-09-11T13:22:51;98260.83;;;41.22;16.52
71996;BME280;59862;47.732;7.346;2022-09-11T13:25:21;98259.09;;;42.10;15.58
71996;BME280;59862;47.732;7.346;2022-09-11T13:27:54;98258.32;;;43.59;13.18
71996;BME280;59862;47.732;7.346;2022-09-11T13:30:23;98252.13;;;42.66;14.02
71996;BME280;59862;47.732;7.346;2022-09-11T13:33:12;98252.32;;;42.75;14.66
71996;BME280;59862;47.732;7.346;2022-09-11T13:35:38;98252.19;;;42.47;14.90
71996;BME280;59862;47.732;7.346;2022-09-11T13:38:19;98245.17;;;42.83;14.18
71996;BME280;59862;47.732;7.346;2022-09-11T13:41:53;98245.67;;;43.84;13.56
71996;BME280;59862;47.732;7.346;2022-09-11T13:43:38;98236.30;;;40.28;15.58
71996;BME280;59862;47.732;7.346;2022-09-11T13:46:18;98228.81;;;38.98;16.82
71996;BME280;59862;47.732;7.346;2022-09-11T13:48:50;98227.13;;;39.99;16.49
71996;BME280;59862;47.732;7.346;2022-09-11T13:51:26;98226.84;;;41.93;13.65
71996;BME280;59862;47.732;7.346;2022-09-11T13:54:00;98224.88;;;41.36;13.68
71996;BME280;59862;47.732;7.346;2022-09-11T13:59:35;98229.84;;;42.01;15.08
71996;BME280;59862;47.732;7.346;2022-09-11T14:04:51;98212.75;;;40.74;15.31
71996;BME280;59862;47.732;7.346;2022-09-11T14:07:27;98204.23;;;39.45;16.52
71996;BME280;59862;47.732;7.346;2022-09-11T14:10:03;98206.58;;;38.99;16.43
71996;BME280;59862;47.732;7.346;2022-09-11T14:12:32;98200.44;;;40.48;15.62
71996;BME280;59862;47.732;7.346;2022-09-11T14:15:06;98198.73;;;40.39;16.60
71996;BME280;59862;47.732;7.346;2022-09-11T14:17:31;98197.82;;;41.07;15.10
71996;BME280;59862;47.732;7.346;2022-09-11T14:20:00;98189.77;;;40.43;15.64
71996;BME280;59862;47.732;7.346;2022-09-11T14:22:30;98183.61;;;40.02;16.10
71996;BME280;59862;47.732;7.346;2022-09-11T14:27:42;98177.30;;;39.06;16.80
71996;BME280;59862;47.732;7.346;2022-09-11T14:30:33;98173.92;;;36.72;20.08
71996;BME280;59862;47.732;7.346;2022-09-11T14:33:13;98170.70;;;35.23;21.34
71996;BME280;59862;47.732;7.346;2022-09-11T14:35:42;98164.23;;;34.03;22.16
71996;BME280;59862;47.732;7.346;2022-09-11T14:38:13;98158.82;;;33.05;23.44
71996;BME280;59862;47.732;7.346;2022-09-11T14:40:50;98160.47;;;31.41;24.90
71996;BME280;59862;47.732;7.346;2022-09-11T14:43:21;98159.25;;;30.96;26.50
71996;BME280;59862;47.732;7.346;2022-09-11T14:45:48;98158.09;;;30.55;26.83
71996;BME280;59862;47.732;7.346;2022-09-11T14:48:16;98150.80;;;30.03;27.88
71996;BME280;59862;47.732;7.346;2022-09-11T14:50:44;98156.42;;;28.68;29.87
71996;BME280;59862;47.732;7.346;2022-09-11T14:53:20;98151.42;;;28.02;31.03
71996;BME280;59862;47.732;7.346;2022-09-11T14:55:45;98148.73;;;27.98;30.66
71996;BME280;59862;47.732;7.346;2022-09-11T14:58:13;98145.23;;;27.00;31.41
71996;BME280;59862;47.732;7.346;2022-09-11T15:00:41;98140.77;;;27.07;31.33
71996;BME280;59862;47.732;7.346;2022-09-11T15:03:09;98145.59;;;26.56;31.85
71996;BME280;59862;47.732;7.346;2022-09-11T15:05:36;98149.81;;;26.43;32.57